Time;durP1;ratioP1;P1;durP2;ratioP2;P2;SDS_P1;SDS_P2;PMS_P1;PMS_P2;Temp;Humidity;BMP_temperature;BMP_pressure;BME280_temperature;BME280_humidity;BME280_pressure;Samples;Min_cycle;Max_cycle;Signal;HPM_P1;HPM_P2
2023/02/08 00:02:23;;;;;;;8.77;7.10;;;;;;;;;;4989728;28;20319;-61
2023/02/08 00:04:48;;;;;;;8.37;6.53;;;;;;;;;;4972036;28;20273;-62
2023/02/08 00:07:13;;;;;;;9.00;6.85;;;;;;;;;;4988594;28;20288;-60
2023/02/08 00:09:39;;;;;;;8.60;7.00;;;;;;;;;;4972094;28;20546;-60
2023/02/08 00:12:04;;;;;;;8.38;6.47;;;;;;;;;;4967427;28;20786;-61
2023/02/08 00:14:29;;;;;;;8.05;7.03;;;;;;;;;;4954511;28;20602;-60
2023/02/08 00:16:54;;;;;;;8.98;7.35;;;;;;;;;;4971545;28;20506;-64
2023/02/08 00:19:20;;;;;;;8.13;6.67;;;;;;;;;;4972013;28;20046;-62
2023/02/08 00:21:45;;;;;;;9.02;6.90;;;;;;;;;;4971568;28;20365;-61
2023/02/08 00:24:10;;;;;;;8.65;7.15;;;;;;;;;;4972107;28;20038;-60
2023/02/08 00:26:36;;;;;;;8.37;7.37;;;;;;;;;;4971678;28;20054;-61
2023/02/08 00:29:01;;;;;;;8.48;6.70;;;;;;;;;;4964465;28;20383;-61
2023/02/08 00:31:26;;;;;;;7.60;6.63;;;;;;;;;;4971750;28;20031;-62
2023/02/08 00:33:52;;;;;;;8.43;7.00;;;;;;;;;;4972161;28;20686;-62
2023/02/08 00:36:17;;;;;;;8.55;6.93;;;;;;;;;;4971663;28;20339;-60
2023/02/08 00:38:42;;;;;;;9.13;6.93;;;;;;;;;;4970862;28;20113;-57
2023/02/08 00:41:07;;;;;;;8.32;6.47;;;;;;;;;;4970175;28;20793;-61
2023/02/08 00:43:33;;;;;;;8.93;6.97;;;;;;;;;;4983648;28;20038;-61
2023/02/08 00:45:58;;;;;;;7.97;6.57;;;;;;;;;;4971299;28;20499;-61
2023/02/08 00:48:24;;;;;;;8.13;6.63;;;;;;;;;;4987957;28;20035;-58
2023/02/08 00:51:03;;;;;;;8.00;6.90;;;;;;;;;;4961639;28;20080;-60
2023/02/08 00:53:28;;;;;;;9.05;7.00;;;;;;;;;;4971391;28;20037;-59
2023/02/08 00:55:54;;;;;;;8.43;6.78;;;;;;;;;;4970636;28;20034;-60
2023/02/08 00:58:19;;;;;;;8.15;6.53;;;;;;;;;;4978391;28;20034;-59
2023/02/08 01:00:44;;;;;;;8.40;6.88;;;;;;;;;;4954569;28;20511;-61
2023/02/08 01:03:09;;;;;;;7.72;6.57;;;;;;;;;;4971278;28;20038;-61
2023/02/08 01:05:36;;;;;;;7.93;6.70;;;;;;;;;;4986922;28;20058;-61
2023/02/08 01:08:01;;;;;;;8.32;6.55;;;;;;;;;;4970440;28;20330;-61
2023/02/08 01:10:27;;;;;;;8.33;6.60;;;;;;;;;;4953683;28;20108;-61
2023/02/08 01:12:52;;;;;;;8.80;7.35;;;;;;;;;;4987281;28;20308;-59
2023/02/08 01:15:17;;;;;;;8.63;7.07;;;;;;;;;;4988906;28;20034;-60
2023/02/08 01:17:42;;;;;;;9.25;7.30;;;;;;;;;;4971209;28;20050;-61
2023/02/08 01:20:08;;;;;;;8.32;6.53;;;;;;;;;;4955092;28;20034;-60
2023/02/08 01:22:33;;;;;;;7.60;6.50;;;;;;;;;;4955721;28;20422;-61
2023/02/08 01:24:59;;;;;;;8.87;6.53;;;;;;;;;;4970872;28;20046;-60
2023/02/08 01:27:25;;;;;;;8.70;6.97;;;;;;;;;;4971146;28;20269;-61
2023/02/08 01:29:50;;;;;;;8.43;6.53;;;;;;;;;;4970507;28;20048;-60
2023/02/08 01:32:15;;;;;;;9.07;7.40;;;;;;;;;;4971271;28;20412;-61
2023/02/08 01:34:41;;;;;;;7.93;6.17;;;;;;;;;;4987258;28;20030;-61
2023/02/08 01:37:06;;;;;;;8.88;6.72;;;;;;;;;;4961602;28;20337;-61
2023/02/08 01:39:32;;;;;;;8.77;6.73;;;;;;;;;;4982010;28;20035;-61
2023/02/08 01:41:57;;;;;;;8.10;6.82;;;;;;;;;;4956335;28;20277;-59
2023/02/08 01:44:41;;;;;;;7.70;6.10;;;;;;;;;;4988646;28;20451;-60
2023/02/08 01:47:06;;;;;;;7.90;6.30;;;;;;;;;;4981393;28;20420;-60
2023/02/08 01:49:33;;;;;;;8.63;6.67;;;;;;;;;;4968616;28;20046;-62
2023/02/08 01:52:04;;;;;;;8.35;6.78;;;;;;;;;;4987465;28;20363;-60
2023/02/08 01:54:31;;;;;;;7.72;6.13;;;;;;;;;;4986009;28;20038;-59
2023/02/08 01:56:57;;;;;;;8.52;6.82;;;;;;;;;;4968882;28;20063;-62
2023/02/08 01:59:25;;;;;;;7.85;6.32;;;;;;;;;;4969743;28;20147;-60
2023/02/08 02:01:50;;;;;;;8.38;6.80;;;;;;;;;;4982683;28;20269;-60
2023/02/08 02:04:15;;;;;;;8.80;6.70;;;;;;;;;;4970024;28;20098;-61
2023/02/08 02:06:42;;;;;;;8.70;6.63;;;;;;;;;;4970173;28;20106;-62
2023/02/08 02:09:22;;;;;;;8.10;6.72;;;;;;;;;;4986178;28;20586;-60
2023/02/08 02:11:48;;;;;;;8.38;6.57;;;;;;;;;;4985221;28;20534;-62
2023/02/08 02:14:13;;;;;;;7.05;5.90;;;;;;;;;;4967781;28;20018;-63
2023/02/08 02:16:38;;;;;;;7.97;6.20;;;;;;;;;;4951985;28;20498;-60
2023/02/08 02:19:04;;;;;;;8.73;6.63;;;;;;;;;;4954191;28;20030;-61
2023/02/08 02:21:47;;;;;;;8.88;7.13;;;;;;;;;;4958803;28;20296;-62
2023/02/08 02:24:28;;;;;;;7.70;6.57;;;;;;;;;;4985024;28;20118;-62
2023/02/08 02:27:13;;;;;;;8.05;5.72;;;;;;;;;;4958163;28;20034;-60
2023/02/08 02:29:57;;;;;;;8.20;6.70;;;;;;;;;;4975636;28;20123;-60
2023/02/08 02:32:28;;;;;;;8.90;6.32;;;;;;;;;;4985891;28;20073;-59
2023/02/08 02:34:59;;;;;;;8.18;6.40;;;;;;;;;;4969264;28;20022;-62
2023/02/08 02:37:44;;;;;;;9.00;7.00;;;;;;;;;;4986116;28;20381;-62
2023/02/08 02:40:09;;;;;;;8.77;7.10;;;;;;;;;;4979458;28;20038;-62
2023/02/08 02:45:25;;;;;;;8.30;6.32;;;;;;;;;;4987729;28;20396;-62
2023/02/08 02:47:57;;;;;;;7.93;6.30;;;;;;;;;;4985272;28;20053;-61
2023/02/08 02:50:23;;;;;;;8.77;6.53;;;;;;;;;;4962177;28;20046;-59
2023/02/08 02:53:16;;;;;;;8.10;6.25;;;;;;;;;;4985292;28;20042;-63
2023/02/08 02:55:43;;;;;;;8.77;6.63;;;;;;;;;;4995991;28;20682;-62
2023/02/08 02:58:09;;;;;;;8.43;6.43;;;;;;;;;;4964580;28;20050;-61
2023/02/08 03:00:34;;;;;;;8.48;6.15;;;;;;;;;;4968096;28;20026;-62
2023/02/08 03:02:59;;;;;;;7.63;6.43;;;;;;;;;;4968709;28;20069;-60
2023/02/08 03:05:25;;;;;;;7.75;6.15;;;;;;;;;;4969259;28;20292;-60
2023/02/08 03:07:53;;;;;;;8.50;6.35;;;;;;;;;;4984385;28;20430;-58
2023/02/08 03:10:34;;;;;;;7.28;5.97;;;;;;;;;;4969356;28;20062;-63
2023/02/08 03:13:05;;;;;;;7.50;6.28;;;;;;;;;;4968476;28;20034;-65
2023/02/08 03:15:45;;;;;;;7.32;5.65;;;;;;;;;;4968611;28;20580;-60
2023/02/08 03:18:10;;;;;;;8.73;6.70;;;;;;;;;;4984691;28;20042;-62
2023/02/08 03:20:40;;;;;;;8.73;6.87;;;;;;;;;;4981819;28;20034;-65
2023/02/08 03:23:19;;;;;;;7.80;5.97;;;;;;;;;;4973378;28;20396;-62
2023/02/08 03:25:49;;;;;;;8.35;6.47;;;;;;;;;;4985618;28;20133;-59
2023/02/08 03:28:18;;;;;;;8.90;6.78;;;;;;;;;;4986153;28;20088;-59
2023/02/08 03:30:51;;;;;;;8.10;6.55;;;;;;;;;;4967630;28;20600;-60
2023/02/08 03:33:31;;;;;;;8.63;6.32;;;;;;;;;;4968199;28;20046;-61
2023/02/08 03:36:20;;;;;;;7.80;6.10;;;;;;;;;;4971964;28;20482;-61
2023/02/08 03:38:45;;;;;;;7.78;6.03;;;;;;;;;;4966659;28;20037;-64
2023/02/08 03:41:16;;;;;;;8.52;6.63;;;;;;;;;;4968305;28;20105;-61
2023/02/08 03:43:43;;;;;;;8.13;6.57;;;;;;;;;;4968657;28;20034;-62
2023/02/08 03:46:10;;;;;;;8.13;6.50;;;;;;;;;;4981045;28;20484;-65
2023/02/08 03:48:35;;;;;;;9.00;6.88;;;;;;;;;;4977245;28;20026;-61
2023/02/08 03:51:00;;;;;;;8.00;6.10;;;;;;;;;;4972349;28;20023;-61
2023/02/08 03:53:26;;;;;;;7.82;6.07;;;;;;;;;;4949313;28;20019;-62
2023/02/08 03:55:53;;;;;;;7.70;6.13;;;;;;;;;;4981050;28;20031;-60
2023/02/08 03:58:18;;;;;;;7.65;5.93;;;;;;;;;;4964421;28;20502;-60
2023/02/08 04:00:44;;;;;;;7.77;6.17;;;;;;;;;;4948997;28;20015;-62
2023/02/08 04:03:16;;;;;;;8.15;6.13;;;;;;;;;;4965891;28;20368;-61
2023/02/08 04:05:41;;;;;;;8.10;6.50;;;;;;;;;;4961895;28;20050;-63
2023/02/08 04:08:07;;;;;;;8.05;6.47;;;;;;;;;;4947832;28;20046;-66
2023/02/08 04:10:32;;;;;;;7.27;6.00;;;;;;;;;;4964945;28;20094;-57
2023/02/08 04:12:57;;;;;;;8.13;6.35;;;;;;;;;;4933333;28;20608;-60
2023/02/08 04:15:22;;;;;;;8.50;6.30;;;;;;;;;;4981080;28;20058;-63
2023/02/08 04:17:48;;;;;;;7.90;6.28;;;;;;;;;;4962635;28;20042;-62
2023/02/08 04:20:13;;;;;;;7.63;6.50;;;;;;;;;;4981135;28;20062;-62
2023/02/08 04:22:38;;;;;;;8.27;6.40;;;;;;;;;;4949217;28;20908;-61
2023/02/08 04:25:04;;;;;;;10.65;6.60;;;;;;;;;;4974703;28;20347;-63
2023/02/08 04:27:29;;;;;;;7.50;5.95;;;;;;;;;;4976174;28;20043;-59
2023/02/08 04:29:54;;;;;;;7.97;6.30;;;;;;;;;;4965893;28;20050;-60
2023/02/08 04:32:19;;;;;;;8.33;6.43;;;;;;;;;;4982164;28;20281;-61
2023/02/08 04:34:44;;;;;;;8.07;6.50;;;;;;;;;;4966896;28;20365;-59
2023/02/08 04:37:10;;;;;;;7.90;6.15;;;;;;;;;;4963053;28;20131;-64
2023/02/08 04:39:36;;;;;;;7.80;6.20;;;;;;;;;;4965409;28;20511;-62
2023/02/08 04:42:01;;;;;;;6.93;6.20;;;;;;;;;;4945640;28;20043;-62
2023/02/08 04:44:26;;;;;;;8.17;6.33;;;;;;;;;;4960664;28;20284;-60
2023/02/08 04:46:51;;;;;;;7.30;6.27;;;;;;;;;;4959732;28;20655;-64
2023/02/08 04:49:17;;;;;;;8.43;6.63;;;;;;;;;;4977764;28;20483;-63
2023/02/08 04:51:42;;;;;;;7.97;6.87;;;;;;;;;;4957571;28;20114;-65
2023/02/08 04:54:07;;;;;;;8.15;6.35;;;;;;;;;;4985355;28;20548;-60
2023/02/08 04:56:32;;;;;;;8.07;6.63;;;;;;;;;;4968077;28;20483;-62
2023/02/08 04:58:58;;;;;;;8.17;6.37;;;;;;;;;;4969701;28;20089;-61
2023/02/08 05:01:23;;;;;;;7.43;6.30;;;;;;;;;;4967941;28;20645;-61
2023/02/08 05:03:48;;;;;;;7.03;6.18;;;;;;;;;;4971128;28;20031;-62
2023/02/08 05:06:13;;;;;;;8.02;6.78;;;;;;;;;;4976442;28;20074;-64
2023/02/08 05:08:39;;;;;;;8.27;6.60;;;;;;;;;;4968326;28;20436;-63
2023/02/08 05:11:04;;;;;;;8.47;6.87;;;;;;;;;;4968909;28;20277;-65
2023/02/08 05:13:29;;;;;;;10.02;6.68;;;;;;;;;;4984748;28;20696;-67
2023/02/08 05:15:54;;;;;;;7.97;6.22;;;;;;;;;;4984533;28;20507;-61
2023/02/08 05:18:20;;;;;;;8.32;6.28;;;;;;;;;;4971053;28;20075;-65
2023/02/08 05:20:52;;;;;;;8.23;6.80;;;;;;;;;;4964624;28;20409;-61
2023/02/08 05:23:17;;;;;;;7.22;6.43;;;;;;;;;;4958027;28;20125;-63
2023/02/08 05:25:43;;;;;;;8.00;6.80;;;;;;;;;;4955688;28;20118;-62
2023/02/08 05:28:08;;;;;;;8.53;6.53;;;;;;;;;;4951385;28;20338;-64
2023/02/08 05:30:33;;;;;;;7.90;6.50;;;;;;;;;;4979794;28;20301;-65
2023/02/08 05:32:58;;;;;;;7.73;6.13;;;;;;;;;;4965022;28;20357;-62
2023/02/08 05:35:24;;;;;;;7.57;6.53;;;;;;;;;;4966422;28;20283;-67
2023/02/08 05:37:49;;;;;;;7.50;6.23;;;;;;;;;;4968685;28;20136;-64
2023/02/08 05:40:14;;;;;;;8.27;6.70;;;;;;;;;;4968328;28;20286;-61
2023/02/08 05:42:41;;;;;;;7.45;6.38;;;;;;;;;;4983934;28;20285;-61
2023/02/08 05:45:06;;;;;;;8.05;6.38;;;;;;;;;;4965360;28;20078;-58
2023/02/08 05:47:31;;;;;;;7.35;6.45;;;;;;;;;;4966997;28;20399;-67
2023/02/08 05:49:57;;;;;;;8.88;6.38;;;;;;;;;;4979702;28;20093;-64
2023/02/08 05:52:22;;;;;;;7.32;6.22;;;;;;;;;;4966661;28;20053;-61
2023/02/08 05:54:47;;;;;;;7.88;6.65;;;;;;;;;;4953210;28;20035;-62
2023/02/08 05:57:12;;;;;;;7.37;6.20;;;;;;;;;;4980895;28;20594;-69
2023/02/08 05:59:38;;;;;;;7.95;6.47;;;;;;;;;;4949219;28;20290;-61
2023/02/08 06:02:03;;;;;;;7.05;6.20;;;;;;;;;;4951575;28;20047;-63
2023/02/08 06:04:28;;;;;;;6.97;6.23;;;;;;;;;;4953353;28;20038;-65
2023/02/08 06:06:54;;;;;;;8.38;6.50;;;;;;;;;;4966798;28;20294;-65
2023/02/08 06:09:19;;;;;;;7.60;6.45;;;;;;;;;;4960513;28;20105;-63
2023/02/08 06:11:44;;;;;;;7.85;6.20;;;;;;;;;;4969496;28;20050;-62
2023/02/08 06:14:09;;;;;;;7.77;6.33;;;;;;;;;;4965180;28;20427;-65
2023/02/08 06:16:34;;;;;;;8.43;6.70;;;;;;;;;;4967506;28;20286;-64
2023/02/08 06:19:00;;;;;;;7.73;6.10;;;;;;;;;;4967963;28;20290;-66
2023/02/08 06:21:27;;;;;;;9.13;7.00;;;;;;;;;;4967027;28;20829;-63
2023/02/08 06:23:52;;;;;;;7.75;6.40;;;;;;;;;;4982308;28;20034;-64
2023/02/08 06:26:17;;;;;;;8.13;6.20;;;;;;;;;;4967043;28;20183;-65
2023/02/08 06:28:42;;;;;;;7.78;6.22;;;;;;;;;;4982798;28;20039;-63
2023/02/08 06:31:08;;;;;;;9.27;6.20;;;;;;;;;;4954430;28;20392;-60
2023/02/08 06:33:33;;;;;;;7.03;6.03;;;;;;;;;;4968377;28;20290;-66
2023/02/08 06:35:58;;;;;;;7.87;6.13;;;;;;;;;;4968196;28;20821;-66
2023/02/08 06:38:23;;;;;;;8.00;6.33;;;;;;;;;;4966827;28;20302;-66
2023/02/08 06:40:49;;;;;;;7.43;6.30;;;;;;;;;;4983129;28;20761;-65
2023/02/08 06:43:14;;;;;;;8.38;5.90;;;;;;;;;;4968754;28;20282;-62
2023/02/08 06:45:39;;;;;;;7.45;5.95;;;;;;;;;;4969019;28;20121;-63
2023/02/08 06:48:05;;;;;;;7.82;6.13;;;;;;;;;;4976881;28;20050;-64
2023/02/08 06:50:30;;;;;;;9.33;6.50;;;;;;;;;;4949879;28;20503;-65
2023/02/08 06:52:55;;;;;;;9.23;5.90;;;;;;;;;;4968979;28;20585;-68
2023/02/08 06:55:21;;;;;;;8.70;6.37;;;;;;;;;;4983539;28;20116;-66
2023/02/08 06:57:46;;;;;;;8.27;6.50;;;;;;;;;;4941356;28;20297;-68
2023/02/08 07:00:11;;;;;;;8.33;6.50;;;;;;;;;;4972901;28;21066;-63
2023/02/08 07:02:36;;;;;;;9.38;6.78;;;;;;;;;;4959881;28;20286;-62
2023/02/08 07:05:02;;;;;;;8.07;6.27;;;;;;;;;;4967527;28;20022;-63
2023/02/08 07:07:27;;;;;;;8.02;6.60;;;;;;;;;;4950727;28;20286;-61
2023/02/08 07:09:53;;;;;;;9.03;6.20;;;;;;;;;;4973595;28;20050;-57
2023/02/08 07:12:18;;;;;;;9.90;6.47;;;;;;;;;;4983843;28;20278;-59
2023/02/08 07:14:43;;;;;;;9.43;6.82;;;;;;;;;;4983629;28;20043;-61
2023/02/08 07:17:09;;;;;;;9.30;6.80;;;;;;;;;;4966801;28;20031;-66
2023/02/08 07:19:34;;;;;;;9.32;6.65;;;;;;;;;;4967382;28;20054;-60
2023/02/08 07:22:03;;;;;;;8.73;6.28;;;;;;;;;;4967031;28;20035;-67
2023/02/08 07:24:29;;;;;;;7.47;5.82;;;;;;;;;;4979598;28;20027;-66
2023/02/08 07:26:54;;;;;;;9.23;6.72;;;;;;;;;;4949313;28;20356;-68
2023/02/08 07:29:19;;;;;;;8.87;6.80;;;;;;;;;;4968378;28;20047;-63
2023/02/08 07:31:44;;;;;;;8.50;6.60;;;;;;;;;;4969204;28;20274;-67
2023/02/08 07:34:10;;;;;;;8.50;6.67;;;;;;;;;;4968580;28;20274;-67
2023/02/08 07:36:35;;;;;;;9.45;7.07;;;;;;;;;;4950878;28;20282;-67
2023/02/08 07:39:01;;;;;;;8.57;6.80;;;;;;;;;;4951187;28;20472;-68
2023/02/08 07:41:26;;;;;;;9.00;6.88;;;;;;;;;;4967642;28;20431;-61
2023/02/08 07:43:51;;;;;;;8.87;6.80;;;;;;;;;;4967800;28;20045;-63
2023/02/08 07:46:18;;;;;;;9.37;6.83;;;;;;;;;;4973806;28;20808;-68
2023/02/08 07:48:43;;;;;;;9.85;7.60;;;;;;;;;;4970712;28;22010;-62
2023/02/08 07:51:09;;;;;;;9.05;6.93;;;;;;;;;;4970459;28;20503;-65
2023/02/08 07:53:34;;;;;;;8.57;6.95;;;;;;;;;;4987361;28;20066;-63
2023/02/08 07:55:59;;;;;;;8.80;7.00;;;;;;;;;;4987655;28;20129;-62
2023/02/08 07:58:24;;;;;;;8.20;6.40;;;;;;;;;;4987714;28;20034;-68
2023/02/08 08:00:50;;;;;;;8.85;7.18;;;;;;;;;;4970829;28;20037;-66
2023/02/08 08:03:15;;;;;;;10.02;7.07;;;;;;;;;;4970140;28;20042;-67
2023/02/08 08:05:40;;;;;;;8.90;6.57;;;;;;;;;;4970042;28;20077;-66
2023/02/08 08:08:06;;;;;;;8.60;6.60;;;;;;;;;;4969534;28;20270;-61
2023/02/08 08:10:31;;;;;;;9.20;6.75;;;;;;;;;;4986036;28;20611;-63
2023/02/08 08:12:56;;;;;;;8.77;6.70;;;;;;;;;;4987663;28;20031;-68
2023/02/08 08:15:22;;;;;;;10.30;7.00;;;;;;;;;;4969782;28;20769;-68
2023/02/08 08:17:47;;;;;;;8.57;7.17;;;;;;;;;;4969578;28;20042;-64
2023/02/08 08:20:12;;;;;;;10.35;7.25;;;;;;;;;;4989439;28;20762;-63
2023/02/08 08:22:37;;;;;;;9.23;7.40;;;;;;;;;;4973965;28;20038;-67
2023/02/08 08:25:03;;;;;;;8.18;6.68;;;;;;;;;;4990962;28;20357;-67
2023/02/08 08:27:28;;;;;;;8.85;6.97;;;;;;;;;;4973299;28;20030;-68
2023/02/08 08:29:53;;;;;;;9.10;7.13;;;;;;;;;;4972655;28;20089;-65
2023/02/08 08:32:19;;;;;;;9.75;7.40;;;;;;;;;;4990712;28;20631;-68
2023/02/08 08:34:44;;;;;;;8.23;6.47;;;;;;;;;;4973400;28;20026;-65
2023/02/08 08:37:09;;;;;;;9.33;6.97;;;;;;;;;;4991335;28;20678;-69
2023/02/08 08:39:35;;;;;;;9.55;7.30;;;;;;;;;;4990305;28;20274;-66
2023/02/08 08:42:02;;;;;;;8.60;6.82;;;;;;;;;;4972891;28;20030;-69
2023/02/08 08:44:28;;;;;;;8.23;6.88;;;;;;;;;;4973665;28;20026;-67
2023/02/08 08:46:54;;;;;;;8.88;6.90;;;;;;;;;;4970036;28;20043;-69
2023/02/08 08:49:19;;;;;;;8.15;6.65;;;;;;;;;;4986847;28;20054;-64
2023/02/08 08:51:45;;;;;;;8.43;6.70;;;;;;;;;;4979844;28;20221;-62
2023/02/08 08:54:10;;;;;;;8.40;7.00;;;;;;;;;;4971606;28;20464;-65
2023/02/08 08:56:35;;;;;;;8.93;6.87;;;;;;;;;;4985935;28;20267;-69
2023/02/08 08:59:00;;;;;;;8.97;6.97;;;;;;;;;;4971288;28;20818;-67
2023/02/08 09:01:25;;;;;;;9.33;7.10;;;;;;;;;;4961655;28;20278;-65
2023/02/08 09:03:51;;;;;;;9.10;7.20;;;;;;;;;;4971209;28;20281;-66
2023/02/08 09:06:16;;;;;;;9.50;7.20;;;;;;;;;;4971499;28;20321;-69
2023/02/08 09:08:41;;;;;;;8.90;7.00;;;;;;;;;;4969933;28;20349;-67
2023/02/08 09:11:07;;;;;;;9.50;7.28;;;;;;;;;;4970303;28;20294;-68
2023/02/08 09:13:33;;;;;;;9.07;7.15;;;;;;;;;;4971436;28;20035;-64
2023/02/08 09:15:58;;;;;;;8.98;6.97;;;;;;;;;;4970794;28;20042;-69
2023/02/08 09:18:23;;;;;;;10.30;7.43;;;;;;;;;;4985238;28;20043;-69
2023/02/08 09:20:48;;;;;;;8.63;7.03;;;;;;;;;;4971222;28;20035;-69
2023/02/08 09:23:14;;;;;;;9.07;7.13;;;;;;;;;;4971446;28;20283;-67
2023/02/08 09:25:39;;;;;;;9.02;7.18;;;;;;;;;;4985639;28;20364;-67
2023/02/08 09:28:04;;;;;;;9.50;7.10;;;;;;;;;;4970615;28;20031;-61
2023/02/08 09:30:29;;;;;;;9.38;7.85;;;;;;;;;;4969475;28;20655;-63
2023/02/08 09:32:55;;;;;;;9.70;7.17;;;;;;;;;;4985686;28;20046;-64
2023/02/08 09:35:20;;;;;;;11.43;7.57;;;;;;;;;;4970985;28;20369;-67
2023/02/08 09:37:45;;;;;;;12.90;9.30;;;;;;;;;;4984986;28;20114;-62
2023/02/08 09:40:24;;;;;;;16.47;10.27;;;;;;;;;;4970623;28;20282;-65
2023/02/08 09:42:53;;;;;;;17.52;11.10;;;;;;;;;;4968817;28;20274;-64
2023/02/08 09:45:26;;;;;;;18.30;11.68;;;;;;;;;;4970338;28;20043;-68
2023/02/08 09:47:52;;;;;;;20.88;13.13;;;;;;;;;;4984911;28;20074;-65
2023/02/08 09:50:20;;;;;;;22.60;13.97;;;;;;;;;;4975416;28;20097;-68
2023/02/08 09:52:53;;;;;;;23.30;14.10;;;;;;;;;;4972448;28;20664;-69
2023/02/08 09:55:28;;;;;;;24.38;14.75;;;;;;;;;;4967139;28;20106;-58
2023/02/08 09:57:53;;;;;;;24.15;15.32;;;;;;;;;;4974399;28;20094;-63
2023/02/08 10:00:20;;;;;;;27.48;16.08;;;;;;;;;;4985463;28;20724;-64
2023/02/08 10:02:46;;;;;;;29.60;16.55;;;;;;;;;;4968648;28;20118;-65
2023/02/08 10:05:17;;;;;;;28.73;16.30;;;;;;;;;;4968532;28;20114;-68
2023/02/08 10:07:42;;;;;;;28.75;16.67;;;;;;;;;;4970369;28;20042;-67
2023/02/08 10:10:12;;;;;;;28.48;17.15;;;;;;;;;;4968404;28;20043;-62
2023/02/08 10:12:41;;;;;;;30.98;18.30;;;;;;;;;;4976676;28;20035;-68
2023/02/08 10:15:24;;;;;;;30.45;18.20;;;;;;;;;;4969679;28;20046;-68
2023/02/08 10:17:49;;;;;;;30.58;18.15;;;;;;;;;;4970109;28;20027;-68
2023/02/08 10:20:50;;;;;;;32.27;18.77;;;;;;;;;;4969528;28;20074;-63
2023/02/08 10:23:24;;;;;;;32.25;18.00;;;;;;;;;;4908701;29;20303;-64
2023/02/08 10:26:08;;;;;;;33.17;18.73;;;;;;;;;;4959777;28;20097;-68
2023/02/08 10:28:33;;;;;;;31.30;18.73;;;;;;;;;;4958468;28;20704;-69
2023/02/08 10:30:58;;;;;;;31.40;19.27;;;;;;;;;;4969450;28;20395;-62
2023/02/08 10:33:25;;;;;;;33.77;19.67;;;;;;;;;;4969655;28;20278;-64
2023/02/08 10:35:50;;;;;;;32.00;18.48;;;;;;;;;;4952597;28;20286;-66
2023/02/08 10:38:19;;;;;;;35.53;18.85;;;;;;;;;;4984675;28;20039;-65
2023/02/08 10:41:04;;;;;;;33.00;19.10;;;;;;;;;;4984183;28;20114;-69
2023/02/08 10:43:34;;;;;;;30.73;18.92;;;;;;;;;;4968691;28;20027;-64
2023/02/08 10:46:21;;;;;;;35.47;19.05;;;;;;;;;;4972363;28;20061;-68
2023/02/08 10:48:55;;;;;;;30.55;18.52;;;;;;;;;;4988436;28;20035;-69
2023/02/08 10:51:20;;;;;;;33.08;19.00;;;;;;;;;;4987255;28;20054;-60
2023/02/08 10:53:45;;;;;;;31.33;18.97;;;;;;;;;;4986756;28;20529;-65
2023/02/08 10:56:37;;;;;;;31.98;18.13;;;;;;;;;;4987042;28;20288;-65
2023/02/08 10:59:09;;;;;;;30.90;17.85;;;;;;;;;;4959435;28;20042;-64
2023/02/08 11:01:34;;;;;;;35.60;18.50;;;;;;;;;;4986636;28;20471;-68
2023/02/08 11:04:06;;;;;;;30.50;18.20;;;;;;;;;;4970252;28;20068;-69
2023/02/08 11:06:31;;;;;;;32.03;19.08;;;;;;;;;;4967647;28;20283;-64
2023/02/08 11:08:57;;;;;;;32.80;19.47;;;;;;;;;;4970165;28;20172;-66
2023/02/08 11:11:23;;;;;;;28.40;18.90;;;;;;;;;;4987803;28;20801;-63
2023/02/08 11:13:51;;;;;;;28.08;16.75;;;;;;;;;;4985958;28;20169;-66
2023/02/08 11:16:21;;;;;;;26.90;16.60;;;;;;;;;;4970101;28;20049;-66
2023/02/08 11:18:47;;;;;;;29.87;17.53;;;;;;;;;;4987861;28;20125;-66
2023/02/08 11:21:28;;;;;;;27.65;17.20;;;;;;;;;;4970649;28;20820;-64
2023/02/08 11:23:53;;;;;;;28.17;16.73;;;;;;;;;;4986591;28;20097;-67
2023/02/08 11:26:23;;;;;;;28.95;17.55;;;;;;;;;;4968900;28;20111;-60
2023/02/08 11:29:02;;;;;;;27.92;17.08;;;;;;;;;;4987422;28;20053;-69
2023/02/08 11:31:27;;;;;;;28.13;16.70;;;;;;;;;;4985840;28;20084;-62
2023/02/08 11:33:59;;;;;;;28.38;16.95;;;;;;;;;;4969756;28;20038;-62
2023/02/08 11:36:25;;;;;;;25.88;16.58;;;;;;;;;;4986367;28;20069;-67
2023/02/08 11:38:50;;;;;;;29.20;16.57;;;;;;;;;;4987301;28;20512;-67
2023/02/08 11:41:17;;;;;;;26.00;16.45;;;;;;;;;;4985889;28;20293;-68
2023/02/08 11:43:43;;;;;;;23.73;15.18;;;;;;;;;;4970035;28;20426;-64
2023/02/08 11:46:08;;;;;;;29.67;16.17;;;;;;;;;;4969792;28;20053;-67
2023/02/08 11:48:41;;;;;;;24.90;15.52;;;;;;;;;;4985463;28;20136;-68
2023/02/08 11:51:06;;;;;;;27.20;15.45;;;;;;;;;;4987134;28;20061;-62
2023/02/08 11:53:35;;;;;;;25.63;15.70;;;;;;;;;;4970061;28;20038;-69
2023/02/08 11:56:20;;;;;;;24.23;14.68;;;;;;;;;;4991877;28;20380;-69
2023/02/08 11:58:56;;;;;;;23.73;13.90;;;;;;;;;;4991274;28;20077;-67
2023/02/08 12:01:21;;;;;;;24.45;15.15;;;;;;;;;;4990174;28;20034;-68
2023/02/08 12:03:49;;;;;;;23.15;14.45;;;;;;;;;;4989386;28;20093;-64
2023/02/08 12:06:33;;;;;;;22.42;13.82;;;;;;;;;;4973763;28;20117;-68
2023/02/08 12:08:58;;;;;;;23.50;14.10;;;;;;;;;;4990515;28;20042;-66
2023/02/08 12:11:38;;;;;;;23.48;13.68;;;;;;;;;;4991735;28;20033;-65
2023/02/08 12:14:22;;;;;;;20.42;13.07;;;;;;;;;;4973608;28;20044;-67
2023/02/08 12:17:06;;;;;;;19.73;13.38;;;;;;;;;;4991543;28;20573;-68
2023/02/08 12:19:34;;;;;;;23.67;13.73;;;;;;;;;;4990951;28;20176;-68
2023/02/08 12:22:02;;;;;;;20.23;13.13;;;;;;;;;;4991127;28;20161;-67
2023/02/08 12:24:40;;;;;;;22.42;13.10;;;;;;;;;;4991295;28;20049;-62
2023/02/08 12:27:35;;;;;;;19.55;12.55;;;;;;;;;;4990705;28;20046;-61
2023/02/08 12:30:00;;;;;;;19.30;13.10;;;;;;;;;;4981597;28;20050;-64
2023/02/08 12:32:34;;;;;;;19.50;12.43;;;;;;;;;;4991166;28;20044;-67
2023/02/08 12:35:10;;;;;;;18.83;12.30;;;;;;;;;;4989943;28;20282;-66
2023/02/08 12:43:07;;;;;;;18.65;11.85;;;;;;;;;;4978498;28;20522;-69
2023/02/08 12:45:35;;;;;;;18.20;11.90;;;;;;;;;;4990874;28;20050;-63
2023/02/08 12:48:03;;;;;;;17.38;11.63;;;;;;;;;;4976652;28;20092;-67
2023/02/08 12:51:07;;;;;;;17.08;11.32;;;;;;;;;;4990405;28;20121;-69
2023/02/08 12:53:35;;;;;;;18.77;11.07;;;;;;;;;;4929636;29;20052;-69
2023/02/08 12:56:01;;;;;;;17.67;11.30;;;;;;;;;;4914016;29;20058;-64
2023/02/08 12:58:26;;;;;;;18.25;11.07;;;;;;;;;;4939639;28;20059;-68
2023/02/08 13:00:52;;;;;;;17.97;11.83;;;;;;;;;;4989180;28;20716;-64
2023/02/08 13:03:30;;;;;;;16.20;10.80;;;;;;;;;;4989250;28;20316;-66
2023/02/08 13:05:56;;;;;;;15.48;10.32;;;;;;;;;;4990728;28;20042;-60
2023/02/08 13:08:40;;;;;;;16.65;10.52;;;;;;;;;;4989333;28;20113;-66
2023/02/08 13:11:10;;;;;;;17.30;11.50;;;;;;;;;;4990707;28;20050;-66
2023/02/08 13:13:35;;;;;;;15.57;10.40;;;;;;;;;;4989183;28;20135;-68
2023/02/08 13:16:21;;;;;;;13.85;10.02;;;;;;;;;;4971992;28;20065;-65
2023/02/08 13:18:53;;;;;;;15.63;10.23;;;;;;;;;;4955799;28;20118;-67
2023/02/08 13:21:22;;;;;;;15.75;9.98;;;;;;;;;;4944745;28;20117;-65
2023/02/08 13:23:48;;;;;;;15.10;9.73;;;;;;;;;;4970146;28;20057;-61
2023/02/08 13:26:30;;;;;;;13.30;9.30;;;;;;;;;;4972927;28;20045;-66
2023/02/08 13:28:56;;;;;;;16.55;10.60;;;;;;;;;;4989419;28;20104;-69
2023/02/08 13:31:22;;;;;;;15.73;9.68;;;;;;;;;;4989928;28;20129;-69
2023/02/08 13:33:55;;;;;;;14.75;9.95;;;;;;;;;;4987820;28;20046;-63
2023/02/08 13:36:25;;;;;;;14.38;9.13;;;;;;;;;;4988823;28;20046;-64
2023/02/08 13:38:50;;;;;;;12.65;9.10;;;;;;;;;;4990397;28;20099;-66
2023/02/08 13:41:20;;;;;;;12.87;8.60;;;;;;;;;;4988741;28;20094;-68
2023/02/08 13:43:47;;;;;;;13.15;8.82;;;;;;;;;;4988482;28;20450;-67
2023/02/08 13:46:12;;;;;;;13.25;9.00;;;;;;;;;;4989111;28;20061;-66
2023/02/08 13:48:47;;;;;;;12.03;9.47;;;;;;;;;;4990219;28;20527;-65
2023/02/08 13:51:27;;;;;;;11.68;8.68;;;;;;;;;;4986912;28;20741;-68
2023/02/08 13:53:56;;;;;;;13.48;8.60;;;;;;;;;;4989440;28;20042;-65
2023/02/08 13:56:39;;;;;;;11.60;8.40;;;;;;;;;;4989183;28;20458;-68
2023/02/08 13:59:09;;;;;;;12.70;8.75;;;;;;;;;;4989586;28;20058;-69
2023/02/08 14:01:34;;;;;;;11.60;8.50;;;;;;;;;;4987958;28;20035;-66
2023/02/08 14:04:05;;;;;;;10.65;7.80;;;;;;;;;;4987950;28;20018;-66
2023/02/08 14:06:31;;;;;;;11.98;8.05;;;;;;;;;;4989517;28;20125;-61
2023/02/08 14:09:19;;;;;;;12.95;8.38;;;;;;;;;;4987816;28;20073;-68
2023/02/08 14:11:48;;;;;;;11.20;7.25;;;;;;;;;;4971685;28;20052;-66
2023/02/08 14:14:18;;;;;;;10.52;7.78;;;;;;;;;;4971897;28;20039;-68
2023/02/08 14:16:44;;;;;;;10.80;7.22;;;;;;;;;;4986845;28;20026;-66
2023/02/08 14:19:16;;;;;;;11.35;7.30;;;;;;;;;;4985073;28;20030;-69
2023/02/08 14:21:42;;;;;;;11.63;7.65;;;;;;;;;;4977727;28;20535;-63
2023/02/08 14:24:18;;;;;;;10.98;7.05;;;;;;;;;;4945493;28;20034;-64
2023/02/08 14:26:43;;;;;;;10.63;7.50;;;;;;;;;;4970008;28;20121;-61
2023/02/08 14:29:15;;;;;;;10.20;7.40;;;;;;;;;;4986601;28;20118;-65
2023/02/08 14:31:42;;;;;;;10.35;7.30;;;;;;;;;;4952406;28;20305;-64
2023/02/08 14:34:28;;;;;;;9.95;6.97;;;;;;;;;;4979075;28;20039;-63
2023/02/08 14:37:12;;;;;;;9.20;7.00;;;;;;;;;;4973479;28;20062;-65
2023/02/08 14:39:37;;;;;;;8.55;6.55;;;;;;;;;;4983743;28;20022;-61
2023/02/08 14:42:07;;;;;;;9.93;7.17;;;;;;;;;;4986902;28;20045;-61
2023/02/08 14:44:42;;;;;;;10.40;6.88;;;;;;;;;;4965547;28;20369;-64
2023/02/08 14:47:25;;;;;;;9.15;6.63;;;;;;;;;;4987192;28;20064;-64
2023/02/08 14:50:09;;;;;;;9.48;6.72;;;;;;;;;;4982001;28;20050;-63
2023/02/08 14:52:34;;;;;;;8.88;6.20;;;;;;;;;;4986736;28;20064;-66